European Causeway — C6RG7 — position and weather

sailwx.info

Track history (hours):
 
Tides and Currents Weather Stations Pressure Air Temp Water Temp Dewpoint Dewpoint Depression Visibility Wind Speed Wind Dir Waves Ship Positions

European Causeway

Operator: P & O Irish Sea

Last reported at 2019-Apr-25 09:30 UTC. Time now 2019-Apr-25 09:48 UTC.
Position N 54°51' W 005°48'.

Length 145 m; draft 5.5 m.

Type: Passenger vessel. MMSI: 311027000.

Date/timePositionNaut miles runAvg speedWind from/ knotsBaromVisibWave heightAir tempDewpointWater temp
2019-Apr-25 09:30N 54°51' W 005°48'0 0.2
2019-Apr-25 08:56N 54°51' W 005°48'0 0.0
2019-Apr-25 08:28N 54°51' W 005°48'1213.1
2019-Apr-25 07:31N 54°57' W 005°29'017.6
2019-Apr-25 07:30N 54°57' W 005°28'8 2.6
2019-Apr-25 04:13N 55°00' W 005°15'816.9
2019-Apr-25 03:46N 54°57' W 005°27'617.4
2019-Apr-25 03:24N 54°54' W 005°37'716.6
2019-Apr-25 02:58N 54°51' W 005°48'0 0.5
2019-Apr-25 02:26N 54°51' W 005°48'0 0.0
2019-Apr-25 01:26N 54°51' W 005°48'0 0.0
2019-Apr-25 00:59N 54°51' W 005°48'1514.1
2019-Apr-24 23:56N 54°58' W 005°25'6 1.7
2019-Apr-24 20:13N 55°00' W 005°15'1119.1
2019-Apr-24 19:39N 54°55' W 005°31'1017.2
2019-Apr-24 19:03N 54°51' W 005°48'0 2.9
2019-Apr-24 19:00N 54°51' W 005°48'0 0.1
2019-Apr-24 18:24N 54°51' W 005°48'0 0.0
2019-Apr-24 17:44N 54°51' W 005°48'0 0.2
2019-Apr-24 17:23N 54°51' W 005°48'1418.4
2019-Apr-24 16:37N 54°58' W 005°27'7 2.6
2019-Apr-24 13:52N 54°60' W 005°15'1421.3
2019-Apr-24 13:11N 54°54' W 005°38'718.5
2019-Apr-24 12:50N 54°51' W 005°48'0 0.2
2019-Apr-24 12:18N 54°51' W 005°48'0 0.0
2019-Apr-24 11:29N 54°51' W 005°48'1516.7
2019-Apr-24 10:35N 54°58' W 005°25'520.3
2019-Apr-24 10:20N 55°01' W 005°18'9 4.3
2019-Apr-24 08:14N 54°59' W 005°02'413.7
2019-Apr-24 07:55N 55°02' W 005°09'818.9
2019-Apr-24 07:31N 54°58' W 005°21'1019.1
2019-Apr-24 07:00N 54°54' W 005°36'815.4
2019-Apr-24 06:31N 54°51' W 005°48'0 0.1
2019-Apr-24 05:59N 54°51' W 005°48'0 0.0
2019-Apr-24 05:29N 54°51' W 005°48'0 0.0
2019-Apr-24 05:01N 54°51' W 005°48'4 7.8
2019-Apr-24 04:30N 54°53' W 005°42'918.0
2019-Apr-24 04:01N 54°57' W 005°28'917.5
2019-Apr-24 03:30N 55°01' W 005°14'713.9
2019-Apr-24 03:00N 54°59' W 005°03'1 2.2
2019-Apr-24 02:21N 54°58' W 005°01'0 0.0
2019-Apr-24 01:26N 54°58' W 005°01'0 0.3
2019-Apr-24 01:00N 54°58' W 005°01'612.0
2019-Apr-24 00:30N 55°01' W 005°10'816.3
2019-Apr-24 00:00N 54°58' W 005°22'917.3
2019-Apr-23 23:30N 54°54' W 005°36'815.1
2019-Apr-23 23:00N 54°51' W 005°48'0 0.1
2019-Apr-23 22:28N 54°51' W 005°48'0 0.0
2019-Apr-23 21:58N 54°51' W 005°48'0 0.0
2019-Apr-23 21:28N 54°51' W 005°48'0 0.0
2019-Apr-23 20:59N 54°51' W 005°48'4 7.9
2019-Apr-23 20:30N 54°53' W 005°43'917.6
2019-Apr-23 20:00N 54°57' W 005°29'917.7
2019-Apr-23 19:30N 55°01' W 005°15'814.1
2019-Apr-23 18:58N 54°59' W 005°02'1 2.1
2019-Apr-23 18:18N 54°58' W 005°01'0 0.0
2019-Apr-23 18:00N 54°58' W 005°01'0 0.0
2019-Apr-23 17:30N 54°58' W 005°01'610.6
2019-Apr-23 16:57N 55°02' W 005°09'920.0
2019-Apr-23 16:31N 54°58' W 005°23'1019.2
2019-Apr-23 16:01N 54°54' W 005°38'612.8
2019-Apr-23 15:30N 54°51' W 005°48'0 0.1
2019-Apr-23 14:59N 54°51' W 005°48'0 0.0
2019-Apr-23 14:29N 54°51' W 005°48'510.5
2019-Apr-23 14:00N 54°54' W 005°41'816.4
2019-Apr-23 13:31N 54°58' W 005°28'816.1
2019-Apr-23 13:01N 55°01' W 005°15'813.8
2019-Apr-23 12:27N 54°59' W 005°03'1 2.4
2019-Apr-23 11:52N 54°58' W 005°01'0 0.2
2019-Apr-23 11:27N 54°58' W 005°01'512.4
2019-Apr-23 11:00N 55°01' W 005°08'816.1
2019-Apr-23 10:31N 54°58' W 005°21'816.3
2019-Apr-23 10:01N 54°55' W 005°33'916.8
2019-Apr-23 09:30N 54°52' W 005°47'1 1.9
2019-Apr-23 09:00N 54°51' W 005°48'0 0.0
2019-Apr-23 08:30N 54°51' W 005°48'3 6.2
2019-Apr-23 08:00N 54°53' W 005°44'815.8
2019-Apr-23 07:30N 54°56' W 005°31'815.7
2019-Apr-23 07:00N 54°60' W 005°19'914.2
2019-Apr-23 06:21N 54°59' W 005°03'2 1.3
2019-Apr-23 05:03N 54°58' W 005°01'0 0.9
2019-Apr-23 04:56N 54°58' W 005°01'512.5
2019-Apr-23 04:30N 55°02' W 005°08'917.9
2019-Apr-23 04:01N 54°58' W 005°22'816.9
2019-Apr-23 03:30N 54°55' W 005°35'815.9
2019-Apr-23 03:00N 54°51' W 005°48'0 0.4
2019-Apr-23 02:31N 54°51' W 005°48'0 0.0
2019-Apr-23 02:01N 54°51' W 005°48'0 0.0
2019-Apr-23 01:30N 54°51' W 005°48'0 0.0
2019-Apr-23 01:01N 54°51' W 005°48'2 4.1
2019-Apr-23 00:28N 54°52' W 005°45'917.7
2019-Apr-22 23:57N 54°56' W 005°31'818.2
2019-Apr-22 23:30N 54°60' W 005°18'914.7
2019-Apr-22 22:54N 54°59' W 005°03'1 3.2
2019-Apr-22 22:27N 54°58' W 005°01'0 0.0
2019-Apr-22 22:00N 54°58' W 005°01'0 0.0
2019-Apr-22 21:27N 54°58' W 005°01'0 0.3
2019-Apr-22 21:00N 54°58' W 005°01'612.1
2019-Apr-22 20:29N 55°01' W 005°10'816.5
2019-Apr-22 20:00N 54°58' W 005°22'917.6
2019-Apr-22 19:30N 54°54' W 005°37'714.7
2019-Apr-22 19:01N 54°51' W 005°48'0 0.2
2019-Apr-22 18:30N 54°51' W 005°48'0 0.0
2019-Apr-22 18:00N 54°51' W 005°48'0 0.0
2019-Apr-22 17:31N 54°51' W 005°48'4 8.8
2019-Apr-22 17:00N 54°53' W 005°41'816.4
2019-Apr-22 16:30N 54°57' W 005°29'815.9
2019-Apr-22 16:01N 55°00' W 005°16'813.9
2019-Apr-22 15:26N 54°59' W 005°03'2 2.6
2019-Apr-22 14:50N 54°58' W 005°01'0 0.1
2019-Apr-22 14:26N 54°58' W 005°01'511.3
2019-Apr-22 13:58N 55°02' W 005°07'919.5
2019-Apr-22 13:30N 54°58' W 005°21'1019.3
2019-Apr-22 13:00N 54°54' W 005°37'714.4
2019-Apr-22 12:30N 54°51' W 005°48'0 0.0
2019-Apr-22 11:59N 54°51' W 005°48'0 0.0
2019-Apr-22 11:30N 54°51' W 005°48'510.6
2019-Apr-22 10:59N 54°54' W 005°40'816.7
2019-Apr-22 10:30N 54°57' W 005°28'917.9
2019-Apr-22 10:00N 55°01' W 005°13'713.5
2019-Apr-22 09:30N 54°59' W 005°02'1 2.1
2019-Apr-22 09:00N 54°58' W 005°01'0 0.0
2019-Apr-22 08:30N 54°58' W 005°01'610.6
2019-Apr-22 07:58N 55°01' W 005°08'816.6
2019-Apr-22 07:30N 54°58' W 005°21'918.4
2019-Apr-22 07:00N 54°55' W 005°35'816.2
2019-Apr-22 06:30N 54°51' W 005°48'0 0.2
2019-Apr-22 05:58N 54°51' W 005°48'0 0.0
2019-Apr-22 05:22N 54°51' W 005°48'0 0.0
2019-Apr-22 05:00N 54°51' W 005°48'4 8.8
2019-Apr-22 04:30N 54°53' W 005°42'918.1
2019-Apr-22 04:01N 54°57' W 005°28'917.4
2019-Apr-22 03:30N 55°01' W 005°14'713.4
2019-Apr-22 03:00N 54°59' W 005°03'2 3.1
2019-Apr-22 02:30N 54°58' W 005°01'0 0.0
2019-Apr-22 02:00N 54°58' W 005°01'0 0.0
2019-Apr-22 01:31N 54°58' W 005°01'0 0.0
2019-Apr-22 00:56N 54°58' W 005°01'6 9.8
2019-Apr-22 00:22N 55°02' W 005°08'617.9
2019-Apr-22 00:00N 54°59' W 005°18'918.3
2019-Apr-21 23:30N 54°55' W 005°33'918.2
2019-Apr-21 23:00N 54°52' W 005°47'1 1.8
2019-Apr-21 22:30N 54°51' W 005°48'0 0.0
2019-Apr-21 21:57N 54°51' W 005°48'0 0.0
2019-Apr-21 21:30N 54°51' W 005°48'0 0.0
2019-Apr-21 21:00N 54°51' W 005°48'3 5.7
2019-Apr-21 20:30N 54°53' W 005°44'917.1
2019-Apr-21 20:00N 54°56' W 005°31'917.7
2019-Apr-21 19:30N 55°00' W 005°17'814.3
2019-Apr-21 18:56N 54°59' W 005°03'2 3.8
2019-Apr-21 18:30N 54°58' W 005°01'0 0.0
2019-Apr-21 18:00N 54°58' W 005°01'0 0.0
2019-Apr-21 17:30N 54°58' W 005°01'6 9.0
2019-Apr-21 16:49N 55°02' W 005°09'617.5
2019-Apr-21 16:30N 54°59' W 005°18'917.8
2019-Apr-21 16:00N 54°55' W 005°32'1016.9
2019-Apr-21 15:27N 54°52' W 005°47'1 1.5
2019-Apr-21 14:49N 54°51' W 005°48'0 0.0
2019-Apr-21 14:25N 54°51' W 005°48'3 5.9
2019-Apr-21 13:55N 54°53' W 005°44'819.9
2019-Apr-21 13:30N 54°57' W 005°32'1020.0
2019-Apr-21 13:00N 55°01' W 005°16'815.0
2019-Apr-21 12:30N 54°59' W 005°03'2 2.4
2019-Apr-21 11:47N 54°58' W 005°01'0 0.0
2019-Apr-21 09:11N 54°58' W 005°01'0 0.0
2019-Apr-21 08:47N 54°58' W 005°01'0 0.0
2019-Apr-21 08:27N 54°58' W 005°01'5 8.9
2019-Apr-21 07:53N 55°02' W 005°07'616.0
2019-Apr-21 07:30N 54°59' W 005°16'918.0
2019-Apr-21 07:00N 54°56' W 005°31'1018.4
2019-Apr-21 06:29N 54°52' W 005°47'1 2.7
2019-Apr-21 05:59N 54°51' W 005°48'0 0.0
2019-Apr-21 05:29N 54°51' W 005°48'0 0.0
2019-Apr-21 04:59N 54°51' W 005°48'0 0.0
2019-Apr-21 04:29N 54°51' W 005°48'0 0.0
2019-Apr-21 03:56N 54°51' W 005°48'0 0.0
2019-Apr-21 03:29N 54°51' W 005°48'0 0.0
2019-Apr-21 02:59N 54°51' W 005°48'0 0.0
2019-Apr-21 02:26N 54°51' W 005°48'0 0.0
2019-Apr-21 01:59N 54°51' W 005°48'0 0.0
2019-Apr-21 01:29N 54°51' W 005°48'0 0.0
2019-Apr-21 00:59N 54°51' W 005°48'0 0.0
2019-Apr-21 00:29N 54°51' W 005°48'0 0.0
2019-Apr-20 23:59N 54°51' W 005°48'0 0.0
2019-Apr-20 23:29N 54°51' W 005°48'0 0.0
2019-Apr-20 22:56N 54°51' W 005°48'0 0.0
2019-Apr-20 22:29N 54°51' W 005°48'0 0.0
2019-Apr-20 21:59N 54°51' W 005°48'0 0.0
2019-Apr-20 21:26N 54°51' W 005°48'0 0.0
2019-Apr-20 20:59N 54°51' W 005°48'2 5.1
2019-Apr-20 20:30N 54°52' W 005°45'917.2
2019-Apr-20 20:00N 54°56' W 005°31'917.6
2019-Apr-20 19:30N 54°60' W 005°17'813.9
2019-Apr-20 18:54N 54°59' W 005°03'2 4.0
2019-Apr-20 18:30N 54°58' W 005°01'0 0.0
2019-Apr-20 18:00N 54°58' W 005°01'8 5.7
2019-Apr-20 16:38N 55°00' W 005°14'318.4
2019-Apr-20 16:30N 54°59' W 005°18'918.3
2019-Apr-20 16:00N 54°55' W 005°32'917.6
2019-Apr-20 15:30N 54°52' W 005°46'1 1.4
2019-Apr-20 14:26N 54°51' W 005°48'3 8.1
2019-Apr-20 14:00N 54°53' W 005°43'918.7
2019-Apr-20 13:30N 54°57' W 005°29'14 5.4
2019-Apr-20 10:56N 55°02' W 005°06'1017.5
2019-Apr-20 10:21N 54°58' W 005°22'618.5
2019-Apr-20 10:00N 54°55' W 005°32'916.5
2019-Apr-20 09:25N 54°51' W 005°48'0 0.2
2019-Apr-20 08:21N 54°51' W 005°48'913.5
2019-Apr-20 07:42N 54°55' W 005°34'417.6
2019-Apr-20 07:30N 54°57' W 005°29'9 2.7
2019-Apr-20 04:12N 54°60' W 005°14'418.2
2019-Apr-20 04:00N 54°58' W 005°20'917.9
2019-Apr-20 03:30N 54°55' W 005°34'917.2
2019-Apr-20 03:00N 54°51' W 005°48'1 0.7
2019-Apr-20 02:19N 54°51' W 005°48'0 0.0
2019-Apr-20 01:52N 54°51' W 005°48'0 0.0
2019-Apr-20 01:22N 54°51' W 005°48'0 0.0
2019-Apr-20 00:59N 54°51' W 005°48'6 9.4
2019-Apr-20 00:23N 54°54' W 005°40'718.6
2019-Apr-20 00:00N 54°57' W 005°29'13 3.5
2019-Apr-19 20:21N 55°02' W 005°08'616.5
2019-Apr-19 20:00N 54°59' W 005°17'1018.5
2019-Apr-19 19:28N 54°55' W 005°33'917.7
2019-Apr-19 18:56N 54°51' W 005°48'0 0.7
2019-Apr-19 18:30N 54°51' W 005°48'0 0.0
2019-Apr-19 18:00N 54°51' W 005°48'0 0.0
2019-Apr-19 17:30N 54°51' W 005°48'812.0
2019-Apr-19 16:50N 54°55' W 005°36'617.5
2019-Apr-19 16:30N 54°58' W 005°27'8 3.0
2019-Apr-19 13:47N 55°01' W 005°14'519.1
2019-Apr-19 13:30N 54°58' W 005°22'1217.6
2019-Apr-19 12:50N 54°53' W 005°41'513.9
2019-Apr-19 12:30N 54°51' W 005°48'0 0.3
2019-Apr-19 12:00N 54°51' W 005°48'0 0.0
2019-Apr-19 11:30N 54°51' W 005°48'612.1
2019-Apr-19 10:58N 54°54' W 005°38'1421.9
2019-Apr-19 10:20N 55°00' W 005°16'1 0.4
2019-Apr-19 07:41N 55°00' W 005°14'818.0
2019-Apr-19 07:16N 54°57' W 005°26'619.2
2019-Apr-19 06:57N 54°54' W 005°36'816.8
2019-Apr-19 06:29N 54°51' W 005°48'0 0.2
2019-Apr-19 05:43N 54°51' W 005°48'0 0.0
2019-Apr-19 05:07N 54°51' W 005°48'0 0.1
2019-Apr-19 05:00N 54°51' W 005°48'1014.1
2019-Apr-19 04:19N 54°56' W 005°33'1117.6
2019-Apr-19 03:42N 55°00' W 005°16'1 0.3
2019-Apr-19 00:14N 55°00' W 005°15'518.1
2019-Apr-18 23:57N 54°58' W 005°22'1617.0
2019-Apr-18 23:01N 54°51' W 005°48'0 7.8
2019-Apr-18 22:59N 54°51' W 005°48'0 0.1
2019-Apr-18 20:59N 54°51' W 005°48'2016.7
2019-Apr-18 19:45N 55°00' W 005°16'3 0.9
2019-Apr-18 16:53N 55°01' W 005°12'820.4
2019-Apr-18 16:30N 54°58' W 005°25'1519.1
2019-Apr-18 15:43N 54°51' W 005°48'0 0.9
2019-Apr-18 15:30N 54°51' W 005°48'0 0.0
2019-Apr-18 15:00N 54°51' W 005°48'0 0.0
2019-Apr-18 14:30N 54°51' W 005°48'611.7
2019-Apr-18 14:00N 54°54' W 005°39'917.8
2019-Apr-18 13:30N 54°58' W 005°26'816.8
2019-Apr-18 13:00N 55°01' W 005°12'714.5
2019-Apr-18 12:30N 54°58' W 005°01'0 0.2
2019-Apr-18 12:00N 54°58' W 005°01'0 0.0
2019-Apr-18 11:30N 54°58' W 005°01'6 8.9
2019-Apr-18 10:52N 55°01' W 005°08'720.5
2019-Apr-18 10:30N 54°58' W 005°20'1020.6
2019-Apr-18 10:00N 54°54' W 005°36'714.8
2019-Apr-18 09:31N 54°51' W 005°48'0 0.1
2019-Apr-18 09:00N 54°51' W 005°48'0 0.0
2019-Apr-18 08:30N 54°51' W 005°48'510.2
2019-Apr-18 08:00N 54°54' W 005°40'1020.0
2019-Apr-18 07:31N 54°58' W 005°25'1020.6
2019-Apr-18 07:01N 55°02' W 005°08'611.0
2019-Apr-18 06:30N 54°58' W 005°01'0 0.0
2019-Apr-18 05:58N 54°58' W 005°01'0 0.0
2019-Apr-18 05:28N 54°58' W 005°01'0 0.3
2019-Apr-18 05:01N 54°58' W 005°01'611.4
2019-Apr-18 04:30N 55°01' W 005°09'917.1
2019-Apr-18 04:00N 54°58' W 005°22'918.3
2019-Apr-18 03:30N 54°54' W 005°37'714.3
2019-Apr-18 03:00N 54°51' W 005°48'0 0.1
2019-Apr-18 02:28N 54°51' W 005°48'0 0.0
2019-Apr-18 01:58N 54°51' W 005°48'0 0.0
2019-Apr-18 01:28N 54°51' W 005°48'0 0.0
2019-Apr-18 01:00N 54°51' W 005°48'4 8.4
2019-Apr-18 00:30N 54°53' W 005°42'918.4
2019-Apr-18 00:00N 54°57' W 005°28'917.6
2019-Apr-17 23:30N 55°01' W 005°14'714.3
2019-Apr-17 23:00N 54°58' W 005°02'1 2.0
2019-Apr-17 22:31N 54°58' W 005°01'0 0.0
2019-Apr-17 21:59N 54°58' W 005°01'0 0.0
2019-Apr-17 21:26N 54°58' W 005°01'0 0.1
2019-Apr-17 21:00N 54°58' W 005°01'612.0
2019-Apr-17 20:30N 55°02' W 005°08'816.4
2019-Apr-17 20:00N 54°59' W 005°21'917.7
2019-Apr-17 19:30N 54°54' W 005°34'816.5
2019-Apr-17 19:00N 54°51' W 005°48'0 0.4
2019-Apr-17 18:30N 54°51' W 005°48'0 0.0
2019-Apr-17 18:00N 54°51' W 005°48'0 0.1
2019-Apr-17 17:30N 54°51' W 005°48'815.5
2019-Apr-17 17:00N 54°55' W 005°36'1121.1
2019-Apr-17 16:31N 54°59' W 005°20'1016.3
2019-Apr-17 15:55N 54°59' W 005°03'2 4.2
2019-Apr-17 15:30N 54°58' W 005°01'0 0.0
2019-Apr-17 15:01N 54°58' W 005°01'0 0.2
2019-Apr-17 14:31N 54°58' W 005°01'713.8
2019-Apr-17 14:01N 55°01' W 005°11'1122.1
2019-Apr-17 13:30N 54°56' W 005°28'917.7
2019-Apr-17 13:01N 54°53' W 005°43'4 7.0
2019-Apr-17 12:29N 54°51' W 005°48'0 0.0
2019-Apr-17 11:59N 54°51' W 005°48'0 0.0
2019-Apr-17 11:30N 54°51' W 005°48'612.0
2019-Apr-17 10:59N 54°55' W 005°39'1021.7
2019-Apr-17 10:31N 54°59' W 005°23'1116.7
2019-Apr-17 09:50N 54°59' W 005°03'2 5.8
2019-Apr-17 09:31N 54°58' W 005°01'0 0.0
2019-Apr-17 08:57N 54°58' W 005°01'0 0.0
2019-Apr-17 08:30N 54°58' W 005°01'6 9.1
2019-Apr-17 07:53N 55°02' W 005°08'616.5
2019-Apr-17 07:30N 54°59' W 005°18'917.5
2019-Apr-17 07:00N 54°55' W 005°32'918.0
2019-Apr-17 06:30N 54°52' W 005°46'2 3.0
2019-Apr-17 06:00N 54°51' W 005°48'0 0.0
2019-Apr-17 05:30N 54°51' W 005°48'0 0.0
2019-Apr-17 05:00N 54°51' W 005°48'611.0
2019-Apr-17 04:30N 54°54' W 005°40'917.2
2019-Apr-17 04:00N 54°58' W 005°26'918.0
2019-Apr-17 03:30N 55°01' W 005°12'612.8
2019-Apr-17 03:00N 54°58' W 005°02'1 1.9
2019-Apr-17 02:30N 54°58' W 005°01'0 0.0
2019-Apr-17 02:00N 54°58' W 005°01'0 0.0
2019-Apr-17 01:31N 54°58' W 005°01'0 0.0
2019-Apr-17 00:59N 54°58' W 005°01'510.2
2019-Apr-17 00:29N 55°02' W 005°06'1017.9
2019-Apr-16 23:54N 54°57' W 005°23'819.6
2019-Apr-16 23:30N 54°54' W 005°36'815.4
2019-Apr-16 23:00N 54°51' W 005°48'0 0.3
2019-Apr-16 22:28N 54°51' W 005°48'0 0.0
2019-Apr-16 21:55N 54°51' W 005°48'0 0.0
2019-Apr-16 21:28N 54°51' W 005°48'0 0.0
2019-Apr-16 20:59N 54°51' W 005°48'3 6.7
2019-Apr-16 20:31N 54°53' W 005°44'917.9
2019-Apr-16 20:01N 54°57' W 005°30'918.2
2019-Apr-16 19:31N 55°00' W 005°15'714.2
2019-Apr-16 19:00N 54°59' W 005°03'2 3.3
2019-Apr-16 18:28N 54°58' W 005°01'0 0.0
2019-Apr-16 17:55N 54°58' W 005°01'0 0.0
2019-Apr-16 17:30N 54°58' W 005°01'5 8.7
2019-Apr-16 16:57N 55°01' W 005°06'919.8
2019-Apr-16 16:30N 54°58' W 005°20'1122.4
2019-Apr-16 16:00N 54°54' W 005°38'612.5
2019-Apr-16 15:30N 54°51' W 005°48'0 0.0
2019-Apr-16 14:59N 54°51' W 005°48'0 0.0
2019-Apr-16 14:30N 54°51' W 005°48'611.6
2019-Apr-16 14:01N 54°54' W 005°40'917.9
2019-Apr-16 13:31N 54°58' W 005°25'917.6
2019-Apr-16 13:00N 55°01' W 005°12'713.7
2019-Apr-16 12:30N 54°58' W 005°01'0 0.3
2019-Apr-16 11:44N 54°58' W 005°01'0 0.0
2019-Apr-16 11:28N 54°58' W 005°01'510.1
2019-Apr-16 10:57N 55°02' W 005°07'818.5
2019-Apr-16 10:30N 54°58' W 005°20'917.9
2019-Apr-16 10:00N 54°55' W 005°35'816.5
2019-Apr-16 09:30N 54°51' W 005°48'0 0.7
2019-Apr-16 08:55N 54°51' W 005°48'0 0.0
2019-Apr-16 08:30N 54°51' W 005°48'1114.2
2019-Apr-16 07:42N 54°56' W 005°31'420.2
2019-Apr-16 07:30N 54°58' W 005°24'1020.5
2019-Apr-16 07:00N 55°02' W 005°08'611.9
2019-Apr-16 06:30N 54°58' W 005°01'0 0.0
2019-Apr-16 06:00N 54°58' W 005°01'0 0.0
2019-Apr-16 05:31N 54°58' W 005°01'0 0.1
2019-Apr-16 04:59N 54°58' W 005°01'510.9
2019-Apr-16 04:30N 55°02' W 005°07'815.5
2019-Apr-16 04:00N 54°59' W 005°19'917.6
2019-Apr-16 03:31N 54°55' W 005°33'917.8
2019-Apr-16 03:00N 54°52' W 005°47'1 1.8
2019-Apr-16 02:30N 54°51' W 005°48'0 0.0
2019-Apr-16 02:00N 54°51' W 005°48'0 0.0
2019-Apr-16 01:30N 54°51' W 005°48'0 0.0
2019-Apr-16 01:00N 54°51' W 005°48'611.5
2019-Apr-16 00:30N 54°54' W 005°39'1019.9
2019-Apr-16 00:00N 54°58' W 005°24'1019.2
2019-Apr-15 23:30N 55°02' W 005°09'613.0
2019-Apr-15 23:00N 54°58' W 005°01'0 0.0
2019-Apr-15 22:30N 54°58' W 005°01'0 0.0
2019-Apr-15 22:00N 54°58' W 005°01'0 0.0
2019-Apr-15 21:30N 54°58' W 005°01'0 0.2
2019-Apr-15 21:00N 54°58' W 005°01'612.0
2019-Apr-15 20:31N 55°02' W 005°09'1020.8
2019-Apr-15 20:01N 54°57' W 005°25'1020.9
2019-Apr-15 19:31N 54°53' W 005°42'4 8.3
2019-Apr-15 19:00N 54°51' W 005°48'0 0.0
2019-Apr-15 18:25N 54°51' W 005°48'0 0.0
2019-Apr-15 17:58N 54°51' W 005°48'0 0.5
2019-Apr-15 17:31N 54°51' W 005°48'917.1
2019-Apr-15 17:00N 54°55' W 005°35'1121.4
2019-Apr-15 16:30N 55°00' W 005°18'916.0
2019-Apr-15 15:58N 54°59' W 005°03'2 4.7
2019-Apr-15 15:29N 54°58' W 005°01'0 0.0
2019-Apr-15 14:48N 54°58' W 005°01'0 0.2
2019-Apr-15 14:30N 54°58' W 005°01'611.5
2019-Apr-15 14:00N 55°02' W 005°09'1020.1
2019-Apr-15 13:30N 54°57' W 005°24'1020.7
2019-Apr-15 13:00N 54°53' W 005°41'5 9.5
2019-Apr-15 12:30N 54°51' W 005°48'0 0.0
2019-Apr-15 11:59N 54°51' W 005°48'0 0.0
2019-Apr-15 11:31N 54°51' W 005°48'5 9.6
2019-Apr-15 11:00N 54°54' W 005°41'1020.1
2019-Apr-15 10:31N 54°58' W 005°25'1019.7
2019-Apr-15 10:00N 55°02' W 005°09'612.3
2019-Apr-15 09:30N 54°58' W 005°01'  
Track history (hours):
 
Tides and Currents Weather Stations Pressure Air Temp Water Temp Dewpoint Dewpoint Depression Visibility Wind Speed Wind Dir Waves Ship Positions

European Causeway

Operator: P & O Irish Sea

Last reported at 2019-Apr-25 09:30 UTC. Time now 2019-Apr-25 09:48 UTC.
Position N 54°51' W 005°48'.

Length 145 m; draft 5.5 m.

Type: Passenger vessel. MMSI: 311027000.

Date/timePositionNaut miles runAvg speedWind from/ knotsBaromVisibWave heightAir tempDewpointWater temp
2019-Apr-25 09:30N 54°51' W 005°48'0 0.2
2019-Apr-25 08:56N 54°51' W 005°48'0 0.0
2019-Apr-25 08:28N 54°51' W 005°48'1213.1
2019-Apr-25 07:31N 54°57' W 005°29'017.6
2019-Apr-25 07:30N 54°57' W 005°28'8 2.6
2019-Apr-25 04:13N 55°00' W 005°15'816.9
2019-Apr-25 03:46N 54°57' W 005°27'617.4
2019-Apr-25 03:24N 54°54' W 005°37'716.6
2019-Apr-25 02:58N 54°51' W 005°48'0 0.5
2019-Apr-25 02:26N 54°51' W 005°48'0 0.0
2019-Apr-25 01:26N 54°51' W 005°48'0 0.0
2019-Apr-25 00:59N 54°51' W 005°48'1514.1
2019-Apr-24 23:56N 54°58' W 005°25'6 1.7
2019-Apr-24 20:13N 55°00' W 005°15'1119.1
2019-Apr-24 19:39N 54°55' W 005°31'1017.2
2019-Apr-24 19:03N 54°51' W 005°48'0 2.9
2019-Apr-24 19:00N 54°51' W 005°48'0 0.1
2019-Apr-24 18:24N 54°51' W 005°48'0 0.0
2019-Apr-24 17:44N 54°51' W 005°48'0 0.2
2019-Apr-24 17:23N 54°51' W 005°48'1418.4
2019-Apr-24 16:37N 54°58' W 005°27'7 2.6
2019-Apr-24 13:52N 54°60' W 005°15'1421.3
2019-Apr-24 13:11N 54°54' W 005°38'718.5
2019-Apr-24 12:50N 54°51' W 005°48'0 0.2
2019-Apr-24 12:18N 54°51' W 005°48'0 0.0
2019-Apr-24 11:29N 54°51' W 005°48'1516.7
2019-Apr-24 10:35N 54°58' W 005°25'520.3
2019-Apr-24 10:20N 55°01' W 005°18'9 4.3
2019-Apr-24 08:14N 54°59' W 005°02'413.7
2019-Apr-24 07:55N 55°02' W 005°09'818.9
2019-Apr-24 07:31N 54°58' W 005°21'1019.1
2019-Apr-24 07:00N 54°54' W 005°36'815.4
2019-Apr-24 06:31N 54°51' W 005°48'0 0.1
2019-Apr-24 05:59N 54°51' W 005°48'0 0.0
2019-Apr-24 05:29N 54°51' W 005°48'0 0.0
2019-Apr-24 05:01N 54°51' W 005°48'4 7.8
2019-Apr-24 04:30N 54°53' W 005°42'918.0
2019-Apr-24 04:01N 54°57' W 005°28'917.5
2019-Apr-24 03:30N 55°01' W 005°14'713.9
2019-Apr-24 03:00N 54°59' W 005°03'1 2.2
2019-Apr-24 02:21N 54°58' W 005°01'0 0.0
2019-Apr-24 01:26N 54°58' W 005°01'0 0.3
2019-Apr-24 01:00N 54°58' W 005°01'612.0
2019-Apr-24 00:30N 55°01' W 005°10'816.3
2019-Apr-24 00:00N 54°58' W 005°22'917.3
2019-Apr-23 23:30N 54°54' W 005°36'815.1
2019-Apr-23 23:00N 54°51' W 005°48'0 0.1
2019-Apr-23 22:28N 54°51' W 005°48'0 0.0
2019-Apr-23 21:58N 54°51' W 005°48'0 0.0
2019-Apr-23 21:28N 54°51' W 005°48'0 0.0
2019-Apr-23 20:59N 54°51' W 005°48'4 7.9
2019-Apr-23 20:30N 54°53' W 005°43'917.6
2019-Apr-23 20:00N 54°57' W 005°29'917.7
2019-Apr-23 19:30N 55°01' W 005°15'814.1
2019-Apr-23 18:58N 54°59' W 005°02'1 2.1
2019-Apr-23 18:18N 54°58' W 005°01'0 0.0
2019-Apr-23 18:00N 54°58' W 005°01'0 0.0
2019-Apr-23 17:30N 54°58' W 005°01'610.6
2019-Apr-23 16:57N 55°02' W 005°09'920.0
2019-Apr-23 16:31N 54°58' W 005°23'1019.2
2019-Apr-23 16:01N 54°54' W 005°38'612.8
2019-Apr-23 15:30N 54°51' W 005°48'0 0.1
2019-Apr-23 14:59N 54°51' W 005°48'0 0.0
2019-Apr-23 14:29N 54°51' W 005°48'510.5
2019-Apr-23 14:00N 54°54' W 005°41'816.4
2019-Apr-23 13:31N 54°58' W 005°28'816.1
2019-Apr-23 13:01N 55°01' W 005°15'813.8
2019-Apr-23 12:27N 54°59' W 005°03'1 2.4
2019-Apr-23 11:52N 54°58' W 005°01'0 0.2
2019-Apr-23 11:27N 54°58' W 005°01'512.4
2019-Apr-23 11:00N 55°01' W 005°08'816.1
2019-Apr-23 10:31N 54°58' W 005°21'816.3
2019-Apr-23 10:01N 54°55' W 005°33'916.8
2019-Apr-23 09:30N 54°52' W 005°47'1 1.9
2019-Apr-23 09:00N 54°51' W 005°48'0 0.0
2019-Apr-23 08:30N 54°51' W 005°48'3 6.2
2019-Apr-23 08:00N 54°53' W 005°44'815.8
2019-Apr-23 07:30N 54°56' W 005°31'815.7
2019-Apr-23 07:00N 54°60' W 005°19'914.2
2019-Apr-23 06:21N 54°59' W 005°03'2 1.3
2019-Apr-23 05:03N 54°58' W 005°01'0 0.9
2019-Apr-23 04:56N 54°58' W 005°01'512.5
2019-Apr-23 04:30N 55°02' W 005°08'917.9
2019-Apr-23 04:01N 54°58' W 005°22'816.9
2019-Apr-23 03:30N 54°55' W 005°35'815.9
2019-Apr-23 03:00N 54°51' W 005°48'0 0.4
2019-Apr-23 02:31N 54°51' W 005°48'0 0.0
2019-Apr-23 02:01N 54°51' W 005°48'0 0.0
2019-Apr-23 01:30N 54°51' W 005°48'0 0.0
2019-Apr-23 01:01N 54°51' W 005°48'2 4.1
2019-Apr-23 00:28N 54°52' W 005°45'917.7
2019-Apr-22 23:57N 54°56' W 005°31'818.2
2019-Apr-22 23:30N 54°60' W 005°18'914.7
2019-Apr-22 22:54N 54°59' W 005°03'1 3.2
2019-Apr-22 22:27N 54°58' W 005°01'0 0.0
2019-Apr-22 22:00N 54°58' W 005°01'0 0.0
2019-Apr-22 21:27N 54°58' W 005°01'0 0.3
2019-Apr-22 21:00N 54°58' W 005°01'612.1
2019-Apr-22 20:29N 55°01' W 005°10'816.5
2019-Apr-22 20:00N 54°58' W 005°22'917.6
2019-Apr-22 19:30N 54°54' W 005°37'714.7
2019-Apr-22 19:01N 54°51' W 005°48'0 0.2
2019-Apr-22 18:30N 54°51' W 005°48'0 0.0
2019-Apr-22 18:00N 54°51' W 005°48'0 0.0
2019-Apr-22 17:31N 54°51' W 005°48'4 8.8
2019-Apr-22 17:00N 54°53' W 005°41'816.4
2019-Apr-22 16:30N 54°57' W 005°29'815.9
2019-Apr-22 16:01N 55°00' W 005°16'813.9
2019-Apr-22 15:26N 54°59' W 005°03'2 2.6
2019-Apr-22 14:50N 54°58' W 005°01'0 0.1
2019-Apr-22 14:26N 54°58' W 005°01'511.3
2019-Apr-22 13:58N 55°02' W 005°07'919.5
2019-Apr-22 13:30N 54°58' W 005°21'1019.3
2019-Apr-22 13:00N 54°54' W 005°37'714.4
2019-Apr-22 12:30N 54°51' W 005°48'0 0.0
2019-Apr-22 11:59N 54°51' W 005°48'0 0.0
2019-Apr-22 11:30N 54°51' W 005°48'510.6
2019-Apr-22 10:59N 54°54' W 005°40'816.7
2019-Apr-22 10:30N 54°57' W 005°28'917.9
2019-Apr-22 10:00N 55°01' W 005°13'713.5
2019-Apr-22 09:30N 54°59' W 005°02'1 2.1
2019-Apr-22 09:00N 54°58' W 005°01'0 0.0
2019-Apr-22 08:30N 54°58' W 005°01'610.6
2019-Apr-22 07:58N 55°01' W 005°08'816.6
2019-Apr-22 07:30N 54°58' W 005°21'918.4
2019-Apr-22 07:00N 54°55' W 005°35'816.2
2019-Apr-22 06:30N 54°51' W 005°48'0 0.2
2019-Apr-22 05:58N 54°51' W 005°48'0 0.0
2019-Apr-22 05:22N 54°51' W 005°48'0 0.0
2019-Apr-22 05:00N 54°51' W 005°48'4 8.8
2019-Apr-22 04:30N 54°53' W 005°42'918.1
2019-Apr-22 04:01N 54°57' W 005°28'917.4
2019-Apr-22 03:30N 55°01' W 005°14'713.4
2019-Apr-22 03:00N 54°59' W 005°03'2 3.1
2019-Apr-22 02:30N 54°58' W 005°01'0 0.0
2019-Apr-22 02:00N 54°58' W 005°01'0 0.0
2019-Apr-22 01:31N 54°58' W 005°01'0 0.0
2019-Apr-22 00:56N 54°58' W 005°01'6 9.8
2019-Apr-22 00:22N 55°02' W 005°08'617.9
2019-Apr-22 00:00N 54°59' W 005°18'918.3
2019-Apr-21 23:30N 54°55' W 005°33'918.2
2019-Apr-21 23:00N 54°52' W 005°47'1 1.8
2019-Apr-21 22:30N 54°51' W 005°48'0 0.0
2019-Apr-21 21:57N 54°51' W 005°48'0 0.0
2019-Apr-21 21:30N 54°51' W 005°48'0 0.0
2019-Apr-21 21:00N 54°51' W 005°48'3 5.7
2019-Apr-21 20:30N 54°53' W 005°44'917.1
2019-Apr-21 20:00N 54°56' W 005°31'917.7
2019-Apr-21 19:30N 55°00' W 005°17'814.3
2019-Apr-21 18:56N 54°59' W 005°03'2 3.8
2019-Apr-21 18:30N 54°58' W 005°01'0 0.0
2019-Apr-21 18:00N 54°58' W 005°01'0 0.0
2019-Apr-21 17:30N 54°58' W 005°01'6 9.0
2019-Apr-21 16:49N 55°02' W 005°09'617.5
2019-Apr-21 16:30N 54°59' W 005°18'917.8
2019-Apr-21 16:00N 54°55' W 005°32'1016.9
2019-Apr-21 15:27N 54°52' W 005°47'1 1.5
2019-Apr-21 14:49N 54°51' W 005°48'0 0.0
2019-Apr-21 14:25N 54°51' W 005°48'3 5.9
2019-Apr-21 13:55N 54°53' W 005°44'819.9
2019-Apr-21 13:30N 54°57' W 005°32'1020.0
2019-Apr-21 13:00N 55°01' W 005°16'815.0
2019-Apr-21 12:30N 54°59' W 005°03'2 2.4
2019-Apr-21 11:47N 54°58' W 005°01'0 0.0
2019-Apr-21 09:11N 54°58' W 005°01'0 0.0
2019-Apr-21 08:47N 54°58' W 005°01'0 0.0
2019-Apr-21 08:27N 54°58' W 005°01'5 8.9
2019-Apr-21 07:53N 55°02' W 005°07'616.0
2019-Apr-21 07:30N 54°59' W 005°16'918.0
2019-Apr-21 07:00N 54°56' W 005°31'1018.4
2019-Apr-21 06:29N 54°52' W 005°47'1 2.7
2019-Apr-21 05:59N 54°51' W 005°48'0 0.0
2019-Apr-21 05:29N 54°51' W 005°48'0 0.0
2019-Apr-21 04:59N 54°51' W 005°48'0 0.0
2019-Apr-21 04:29N 54°51' W 005°48'0 0.0
2019-Apr-21 03:56N 54°51' W 005°48'0 0.0
2019-Apr-21 03:29N 54°51' W 005°48'0 0.0
2019-Apr-21 02:59N 54°51' W 005°48'0 0.0
2019-Apr-21 02:26N 54°51' W 005°48'0 0.0
2019-Apr-21 01:59N 54°51' W 005°48'0 0.0
2019-Apr-21 01:29N 54°51' W 005°48'0 0.0
2019-Apr-21 00:59N 54°51' W 005°48'0 0.0
2019-Apr-21 00:29N 54°51' W 005°48'0 0.0
2019-Apr-20 23:59N 54°51' W 005°48'0 0.0
2019-Apr-20 23:29N 54°51' W 005°48'0 0.0
2019-Apr-20 22:56N 54°51' W 005°48'0 0.0
2019-Apr-20 22:29N 54°51' W 005°48'0 0.0
2019-Apr-20 21:59N 54°51' W 005°48'0 0.0
2019-Apr-20 21:26N 54°51' W 005°48'0 0.0
2019-Apr-20 20:59N 54°51' W 005°48'2 5.1
2019-Apr-20 20:30N 54°52' W 005°45'917.2
2019-Apr-20 20:00N 54°56' W 005°31'917.6
2019-Apr-20 19:30N 54°60' W 005°17'813.9
2019-Apr-20 18:54N 54°59' W 005°03'2 4.0
2019-Apr-20 18:30N 54°58' W 005°01'0 0.0
2019-Apr-20 18:00N 54°58' W 005°01'8 5.7
2019-Apr-20 16:38N 55°00' W 005°14'318.4
2019-Apr-20 16:30N 54°59' W 005°18'918.3
2019-Apr-20 16:00N 54°55' W 005°32'917.6
2019-Apr-20 15:30N 54°52' W 005°46'1 1.4
2019-Apr-20 14:26N 54°51' W 005°48'3 8.1
2019-Apr-20 14:00N 54°53' W 005°43'918.7
2019-Apr-20 13:30N 54°57' W 005°29'14 5.4
2019-Apr-20 10:56N 55°02' W 005°06'1017.5
2019-Apr-20 10:21N 54°58' W 005°22'618.5
2019-Apr-20 10:00N 54°55' W 005°32'916.5
2019-Apr-20 09:25N 54°51' W 005°48'0 0.2
2019-Apr-20 08:21N 54°51' W 005°48'913.5
2019-Apr-20 07:42N 54°55' W 005°34'417.6
2019-Apr-20 07:30N 54°57' W 005°29'9 2.7
2019-Apr-20 04:12N 54°60' W 005°14'418.2
2019-Apr-20 04:00N 54°58' W 005°20'917.9
2019-Apr-20 03:30N 54°55' W 005°34'917.2
2019-Apr-20 03:00N 54°51' W 005°48'1 0.7
2019-Apr-20 02:19N 54°51' W 005°48'0 0.0
2019-Apr-20 01:52N 54°51' W 005°48'0 0.0
2019-Apr-20 01:22N 54°51' W 005°48'0 0.0
2019-Apr-20 00:59N 54°51' W 005°48'6 9.4
2019-Apr-20 00:23N 54°54' W 005°40'718.6
2019-Apr-20 00:00N 54°57' W 005°29'13 3.5
2019-Apr-19 20:21N 55°02' W 005°08'616.5
2019-Apr-19 20:00N 54°59' W 005°17'1018.5
2019-Apr-19 19:28N 54°55' W 005°33'917.7
2019-Apr-19 18:56N 54°51' W 005°48'0 0.7
2019-Apr-19 18:30N 54°51' W 005°48'0 0.0
2019-Apr-19 18:00N 54°51' W 005°48'0 0.0
2019-Apr-19 17:30N 54°51' W 005°48'812.0
2019-Apr-19 16:50N 54°55' W 005°36'617.5
2019-Apr-19 16:30N 54°58' W 005°27'8 3.0
2019-Apr-19 13:47N 55°01' W 005°14'519.1
2019-Apr-19 13:30N 54°58' W 005°22'1217.6
2019-Apr-19 12:50N 54°53' W 005°41'513.9
2019-Apr-19 12:30N 54°51' W 005°48'0 0.3
2019-Apr-19 12:00N 54°51' W 005°48'0 0.0
2019-Apr-19 11:30N 54°51' W 005°48'612.1
2019-Apr-19 10:58N 54°54' W 005°38'1421.9
2019-Apr-19 10:20N 55°00' W 005°16'1 0.4
2019-Apr-19 07:41N 55°00' W 005°14'818.0
2019-Apr-19 07:16N 54°57' W 005°26'619.2
2019-Apr-19 06:57N 54°54' W 005°36'816.8
2019-Apr-19 06:29N 54°51' W 005°48'0 0.2
2019-Apr-19 05:43N 54°51' W 005°48'0 0.0
2019-Apr-19 05:07N 54°51' W 005°48'0 0.1
2019-Apr-19 05:00N 54°51' W 005°48'1014.1
2019-Apr-19 04:19N 54°56' W 005°33'1117.6
2019-Apr-19 03:42N 55°00' W 005°16'1 0.3
2019-Apr-19 00:14N 55°00' W 005°15'518.1
2019-Apr-18 23:57N 54°58' W 005°22'1617.0
2019-Apr-18 23:01N 54°51' W 005°48'0 7.8
2019-Apr-18 22:59N 54°51' W 005°48'0 0.1
2019-Apr-18 20:59N 54°51' W 005°48'2016.7
2019-Apr-18 19:45N 55°00' W 005°16'3 0.9
2019-Apr-18 16:53N 55°01' W 005°12'820.4
2019-Apr-18 16:30N 54°58' W 005°25'1519.1
2019-Apr-18 15:43N 54°51' W 005°48'0 0.9
2019-Apr-18 15:30N 54°51' W 005°48'0 0.0
2019-Apr-18 15:00N 54°51' W 005°48'0 0.0
2019-Apr-18 14:30N 54°51' W 005°48'611.7
2019-Apr-18 14:00N 54°54' W 005°39'917.8
2019-Apr-18 13:30N 54°58' W 005°26'816.8
2019-Apr-18 13:00N 55°01' W 005°12'714.5
2019-Apr-18 12:30N 54°58' W 005°01'0 0.2
2019-Apr-18 12:00N 54°58' W 005°01'0 0.0
2019-Apr-18 11:30N 54°58' W 005°01'6 8.9
2019-Apr-18 10:52N 55°01' W 005°08'720.5
2019-Apr-18 10:30N 54°58' W 005°20'1020.6
2019-Apr-18 10:00N 54°54' W 005°36'714.8
2019-Apr-18 09:31N 54°51' W 005°48'0 0.1
2019-Apr-18 09:00N 54°51' W 005°48'0 0.0
2019-Apr-18 08:30N 54°51' W 005°48'510.2
2019-Apr-18 08:00N 54°54' W 005°40'1020.0
2019-Apr-18 07:31N 54°58' W 005°25'1020.6
2019-Apr-18 07:01N 55°02' W 005°08'611.0
2019-Apr-18 06:30N 54°58' W 005°01'0 0.0
2019-Apr-18 05:58N 54°58' W 005°01'0 0.0
2019-Apr-18 05:28N 54°58' W 005°01'0 0.3
2019-Apr-18 05:01N 54°58' W 005°01'611.4
2019-Apr-18 04:30N 55°01' W 005°09'917.1
2019-Apr-18 04:00N 54°58' W 005°22'918.3
2019-Apr-18 03:30N 54°54' W 005°37'714.3
2019-Apr-18 03:00N 54°51' W 005°48'0 0.1
2019-Apr-18 02:28N 54°51' W 005°48'0 0.0
2019-Apr-18 01:58N 54°51' W 005°48'0 0.0
2019-Apr-18 01:28N 54°51' W 005°48'0 0.0
2019-Apr-18 01:00N 54°51' W 005°48'4 8.4
2019-Apr-18 00:30N 54°53' W 005°42'918.4
2019-Apr-18 00:00N 54°57' W 005°28'917.6
2019-Apr-17 23:30N 55°01' W 005°14'714.3
2019-Apr-17 23:00N 54°58' W 005°02'1 2.0
2019-Apr-17 22:31N 54°58' W 005°01'0 0.0
2019-Apr-17 21:59N 54°58' W 005°01'0 0.0
2019-Apr-17 21:26N 54°58' W 005°01'0 0.1
2019-Apr-17 21:00N 54°58' W 005°01'612.0
2019-Apr-17 20:30N 55°02' W 005°08'816.4
2019-Apr-17 20:00N 54°59' W 005°21'917.7
2019-Apr-17 19:30N 54°54' W 005°34'816.5
2019-Apr-17 19:00N 54°51' W 005°48'0 0.4
2019-Apr-17 18:30N 54°51' W 005°48'0 0.0
2019-Apr-17 18:00N 54°51' W 005°48'0 0.1
2019-Apr-17 17:30N 54°51' W 005°48'815.5
2019-Apr-17 17:00N 54°55' W 005°36'1121.1
2019-Apr-17 16:31N 54°59' W 005°20'1016.3
2019-Apr-17 15:55N 54°59' W 005°03'2 4.2
2019-Apr-17 15:30N 54°58' W 005°01'0 0.0
2019-Apr-17 15:01N 54°58' W 005°01'0 0.2
2019-Apr-17 14:31N 54°58' W 005°01'713.8
2019-Apr-17 14:01N 55°01' W 005°11'1122.1
2019-Apr-17 13:30N 54°56' W 005°28'917.7
2019-Apr-17 13:01N 54°53' W 005°43'4 7.0
2019-Apr-17 12:29N 54°51' W 005°48'0 0.0
2019-Apr-17 11:59N 54°51' W 005°48'0 0.0
2019-Apr-17 11:30N 54°51' W 005°48'612.0
2019-Apr-17 10:59N 54°55' W 005°39'1021.7
2019-Apr-17 10:31N 54°59' W 005°23'1116.7
2019-Apr-17 09:50N 54°59' W 005°03'2 5.8
2019-Apr-17 09:31N 54°58' W 005°01'0 0.0
2019-Apr-17 08:57N 54°58' W 005°01'0 0.0
2019-Apr-17 08:30N 54°58' W 005°01'6 9.1
2019-Apr-17 07:53N 55°02' W 005°08'616.5
2019-Apr-17 07:30N 54°59' W 005°18'917.5
2019-Apr-17 07:00N 54°55' W 005°32'918.0
2019-Apr-17 06:30N 54°52' W 005°46'2 3.0
2019-Apr-17 06:00N 54°51' W 005°48'0 0.0
2019-Apr-17 05:30N 54°51' W 005°48'0 0.0
2019-Apr-17 05:00N 54°51' W 005°48'611.0
2019-Apr-17 04:30N 54°54' W 005°40'917.2
2019-Apr-17 04:00N 54°58' W 005°26'918.0
2019-Apr-17 03:30N 55°01' W 005°12'612.8
2019-Apr-17 03:00N 54°58' W 005°02'1 1.9
2019-Apr-17 02:30N 54°58' W 005°01'0 0.0
2019-Apr-17 02:00N 54°58' W 005°01'0 0.0
2019-Apr-17 01:31N 54°58' W 005°01'0 0.0
2019-Apr-17 00:59N 54°58' W 005°01'510.2
2019-Apr-17 00:29N 55°02' W 005°06'1017.9
2019-Apr-16 23:54N 54°57' W 005°23'819.6
2019-Apr-16 23:30N 54°54' W 005°36'815.4
2019-Apr-16 23:00N 54°51' W 005°48'0 0.3
2019-Apr-16 22:28N 54°51' W 005°48'0 0.0
2019-Apr-16 21:55N 54°51' W 005°48'0 0.0
2019-Apr-16 21:28N 54°51' W 005°48'0 0.0
2019-Apr-16 20:59N 54°51' W 005°48'3 6.7
2019-Apr-16 20:31N 54°53' W 005°44'917.9
2019-Apr-16 20:01N 54°57' W 005°30'918.2
2019-Apr-16 19:31N 55°00' W 005°15'714.2
2019-Apr-16 19:00N 54°59' W 005°03'2 3.3
2019-Apr-16 18:28N 54°58' W 005°01'0 0.0
2019-Apr-16 17:55N 54°58' W 005°01'0 0.0
2019-Apr-16 17:30N 54°58' W 005°01'5 8.7
2019-Apr-16 16:57N 55°01' W 005°06'919.8
2019-Apr-16 16:30N 54°58' W 005°20'1122.4
2019-Apr-16 16:00N 54°54' W 005°38'612.5
2019-Apr-16 15:30N 54°51' W 005°48'0 0.0
2019-Apr-16 14:59N 54°51' W 005°48'0 0.0
2019-Apr-16 14:30N 54°51' W 005°48'611.6
2019-Apr-16 14:01N 54°54' W 005°40'917.9
2019-Apr-16 13:31N 54°58' W 005°25'917.6
2019-Apr-16 13:00N 55°01' W 005°12'713.7
2019-Apr-16 12:30N 54°58' W 005°01'0 0.3
2019-Apr-16 11:44N 54°58' W 005°01'0 0.0
2019-Apr-16 11:28N 54°58' W 005°01'510.1
2019-Apr-16 10:57N 55°02' W 005°07'818.5
2019-Apr-16 10:30N 54°58' W 005°20'917.9
2019-Apr-16 10:00N 54°55' W 005°35'816.5
2019-Apr-16 09:30N 54°51' W 005°48'0 0.7
2019-Apr-16 08:55N 54°51' W 005°48'0 0.0
2019-Apr-16 08:30N 54°51' W 005°48'1114.2
2019-Apr-16 07:42N 54°56' W 005°31'420.2
2019-Apr-16 07:30N 54°58' W 005°24'1020.5
2019-Apr-16 07:00N 55°02' W 005°08'611.9
2019-Apr-16 06:30N 54°58' W 005°01'0 0.0
2019-Apr-16 06:00N 54°58' W 005°01'0 0.0
2019-Apr-16 05:31N 54°58' W 005°01'0 0.1
2019-Apr-16 04:59N 54°58' W 005°01'510.9
2019-Apr-16 04:30N 55°02' W 005°07'815.5
2019-Apr-16 04:00N 54°59' W 005°19'917.6
2019-Apr-16 03:31N 54°55' W 005°33'917.8
2019-Apr-16 03:00N 54°52' W 005°47'1 1.8
2019-Apr-16 02:30N 54°51' W 005°48'0 0.0
2019-Apr-16 02:00N 54°51' W 005°48'0 0.0
2019-Apr-16 01:30N 54°51' W 005°48'0 0.0
2019-Apr-16 01:00N 54°51' W 005°48'611.5
2019-Apr-16 00:30N 54°54' W 005°39'1019.9
2019-Apr-16 00:00N 54°58' W 005°24'1019.2
2019-Apr-15 23:30N 55°02' W 005°09'613.0
2019-Apr-15 23:00N 54°58' W 005°01'0 0.0
2019-Apr-15 22:30N 54°58' W 005°01'0 0.0
2019-Apr-15 22:00N 54°58' W 005°01'0 0.0
2019-Apr-15 21:30N 54°58' W 005°01'0 0.2
2019-Apr-15 21:00N 54°58' W 005°01'612.0
2019-Apr-15 20:31N 55°02' W 005°09'1020.8
2019-Apr-15 20:01N 54°57' W 005°25'1020.9
2019-Apr-15 19:31N 54°53' W 005°42'4 8.3
2019-Apr-15 19:00N 54°51' W 005°48'0 0.0
2019-Apr-15 18:25N 54°51' W 005°48'0 0.0
2019-Apr-15 17:58N 54°51' W 005°48'0 0.5
2019-Apr-15 17:31N 54°51' W 005°48'917.1
2019-Apr-15 17:00N 54°55' W 005°35'1121.4
2019-Apr-15 16:30N 55°00' W 005°18'916.0
2019-Apr-15 15:58N 54°59' W 005°03'2 4.7
2019-Apr-15 15:29N 54°58' W 005°01'0 0.0
2019-Apr-15 14:48N 54°58' W 005°01'0 0.2
2019-Apr-15 14:30N 54°58' W 005°01'611.5
2019-Apr-15 14:00N 55°02' W 005°09'1020.1
2019-Apr-15 13:30N 54°57' W 005°24'1020.7
2019-Apr-15 13:00N 54°53' W 005°41'5 9.5
2019-Apr-15 12:30N 54°51' W 005°48'0 0.0
2019-Apr-15 11:59N 54°51' W 005°48'0 0.0
2019-Apr-15 11:31N 54°51' W 005°48'5 9.6
2019-Apr-15 11:00N 54°54' W 005°41'1020.1
2019-Apr-15 10:31N 54°58' W 005°25'1019.7
2019-Apr-15 10:00N 55°02' W 005°09'612.3
2019-Apr-15 09:30N 54°58' W 005°01'  

Dump ship's entire track history